Terminal Aerodrome Forecast
Issued by NWS St Louis, MO

Home | Current Version | Previous Version | Text Only | Print | Product List | Glossary On
Versions: 1 2 3 4 5 6 7 8 9 10 11 12 13 14 15 16 17 18 19 20 21 22 23 24 25
000
FTUS43 KLSX 220903 AAA
TAFSTL
TAF AMD
KSTL 220903Z 2209/2312 06012KT 6SM -RA OVC060
     FM221300 05010G17KT 5SM -RA BR OVC028
     FM221900 03013G21KT P6SM OVC020
     FM222300 02010G17KT P6SM OVC035
     FM230000 02010KT P6SM OVC050
     FM230500 02007KT P6SM BKN120=

USA.gov is the U.S. government's official web portal to all federal, state and local government web resources and services.